Airfield :
LOGIN :

Register | Disclaimer

   EN    FR    IT 

 










Legend :    VFR   Marginal VFR   IFR   Intensive IFR   Very Intensive IFR
Visi :
Ceiling :
>= 8 km
>= 3000ft
5 to 8 km
1000 to 3000 ft
1500m to 5 km
500 to 1000 ft
800 to 1500m
200 to 500 ft
< 800m
< 200 ft
Symbols :   Thunderstorms  Fog  Heavy snow  Heavy precipitations  Wind > 20 kt
SIGMETs :     Misc.  Thunderstorms  Icing  Turbulence  Mountain Waves  Volcanic Ashes






- Airport Elevation : 20 ft
- IATA code : LSI


EGPB - Sumburgh

CURRENT METAR :
  • 190350Z AUTO 29016KT 9999 SCT020/// BKN041/// 07/03 Q1031

EXPIRED METARs :
  • 190320Z AUTO 30018G30KT 9999 SCT020/// SCT042/// 07/03 Q1030
  • 190250Z AUTO 30010KT 260V330 9999 SCT023/// BKN039/// 07/03 Q1030
  • 190220Z AUTO 30015KT 280V340 9999 FEW028/// SCT040/// 07/02 Q1030
  • 190150Z AUTO 30019KT 9999 SCT024/// BKN040/// 07/02 Q1030
  • 190120Z AUTO 29015KT 9999 FEW006/// BKN022/// 08/03 Q1029

TAF AMD TAF EGPB
Valid from the 19 at 03:00 until the 19 at 12:00 UTC


190337Z 1903/1912 29017KT 9999 SCT018
TEMPO 1903/1912 6000 SHRA BKN014
PROB30
TEMPO 1903/1909 30020G30KT
BECMG 1909/1912 26022KT
PROB30
TEMPO 1909/1912 27025G35KT



MET'MAP, your aeronautical weather chart ! - Copyright ORBIFLY December 2007 - Disclaimer

ORBIFLY MET'MAP TEAM :

Programming & Development : Alexandra Zaïnal
Concept & original design : Baudouin d'Aumeries
Assistance for programming : Marc-Olivier Méhu
Technical & hardware support : Manuel Goepfert

Contact : metmap@orbifly.com




SOURCES & CREDITS :

   NOAA